createdAt,value
2022-10-03T00:00:16.323Z,4.32
2022-10-03T00:02:51.937Z,4.80
2022-10-03T00:06:04.246Z,4.20
2022-10-03T00:09:28.834Z,5.38
2022-10-03T00:12:40.170Z,4.03
2022-10-03T00:15:32.386Z,5.20
2022-10-03T00:18:22.196Z,5.80
2022-10-03T00:21:51.974Z,4.70
2022-10-03T00:25:19.240Z,3.70
2022-10-03T00:28:39.147Z,5.68
2022-10-03T00:31:16.993Z,4.25
2022-10-03T00:34:26.469Z,5.53
2022-10-03T00:37:25.891Z,4.45
2022-10-03T00:40:55.821Z,4.55
2022-10-03T00:43:52.092Z,7.25
2022-10-03T00:46:52.625Z,5.18
2022-10-03T00:50:24.924Z,5.40
2022-10-03T00:53:51.911Z,5.75
2022-10-03T00:56:37.232Z,5.70
2022-10-03T00:59:55.778Z,5.38
2022-10-03T01:02:55.673Z,5.30
2022-10-03T01:05:58.543Z,3.78
2022-10-03T01:08:37.789Z,4.68
2022-10-03T01:12:36.341Z,5.80
2022-10-03T01:15:34.612Z,4.53
2022-10-03T01:18:53.000Z,8.45
2022-10-03T01:22:17.056Z,5.60
2022-10-03T01:25:11.044Z,5.05
2022-10-03T01:28:30.959Z,6.17
2022-10-03T01:31:06.268Z,5.05
2022-10-03T01:34:00.918Z,5.25
2022-10-03T01:37:17.390Z,4.63
2022-10-03T01:40:08.846Z,4.55
2022-10-03T01:43:03.344Z,4.93
2022-10-03T01:45:47.507Z,6.30
2022-10-03T01:49:14.032Z,6.60
2022-10-03T01:52:11.015Z,5.72
2022-10-03T01:55:08.236Z,5.65
2022-10-03T01:58:18.160Z,5.40
2022-10-03T02:01:08.170Z,5.30
2022-10-03T02:03:57.185Z,4.85
2022-10-03T02:07:06.796Z,6.15
2022-10-03T02:10:29.763Z,6.60
2022-10-03T02:13:40.923Z,5.32
2022-10-03T02:16:18.528Z,5.18
2022-10-03T02:18:48.842Z,5.38
2022-10-03T02:21:26.924Z,5.97
2022-10-03T02:24:15.489Z,4.68
2022-10-03T02:27:41.554Z,5.55
2022-10-03T02:30:32.040Z,5.95
2022-10-03T02:33:16.749Z,5.03
2022-10-03T02:36:45.033Z,5.45
2022-10-03T02:40:10.247Z,4.20
2022-10-03T02:43:19.435Z,5.70
2022-10-03T02:46:43.497Z,8.38
2022-10-03T02:50:00.881Z,5.07
2022-10-03T02:53:15.274Z,5.32
2022-10-03T02:56:20.985Z,5.30
2022-10-03T02:59:36.889Z,4.80
2022-10-03T03:02:28.541Z,4.97
2022-10-03T03:05:04.047Z,4.65
2022-10-03T03:08:20.095Z,6.35
2022-10-03T03:11:18.705Z,5.25
2022-10-03T03:14:48.754Z,5.50
2022-10-03T03:17:48.183Z,5.03
2022-10-03T03:20:56.020Z,4.40
2022-10-03T03:24:01.012Z,5.38
2022-10-03T03:27:27.298Z,6.68
2022-10-03T03:30:20.651Z,4.63
2022-10-03T03:32:59.552Z,5.72
2022-10-03T03:35:46.337Z,5.65
2022-10-03T03:38:37.850Z,6.85
2022-10-03T03:41:40.801Z,5.90
2022-10-03T03:45:29.477Z,5.13
2022-10-03T03:49:12.754Z,4.95
2022-10-03T03:52:18.830Z,5.40
2022-10-03T03:55:26.382Z,5.18
2022-10-03T03:58:24.226Z,6.38
2022-10-03T04:01:14.979Z,7.82
2022-10-03T04:04:20.028Z,5.75
2022-10-03T04:07:18.320Z,5.43
2022-10-03T04:10:18.834Z,5.88
2022-10-03T04:13:41.484Z,5.70
2022-10-03T04:17:01.000Z,4.65
2022-10-03T04:19:55.162Z,4.88
2022-10-03T04:23:12.464Z,6.20
2022-10-03T04:26:24.513Z,5.68
2022-10-03T04:29:17.329Z,5.45
2022-10-03T04:31:57.856Z,5.25
2022-10-03T04:35:00.617Z,6.22
2022-10-03T04:37:57.683Z,5.35
2022-10-03T04:40:54.252Z,6.40
2022-10-03T04:44:02.514Z,5.72
2022-10-03T04:47:01.109Z,5.85
2022-10-03T04:49:42.628Z,5.95
2022-10-03T04:52:51.939Z,6.47
2022-10-03T04:55:45.828Z,5.60
2022-10-03T04:58:43.215Z,6.18
2022-10-03T05:01:48.127Z,6.03
2022-10-03T05:04:43.370Z,5.13
2022-10-03T05:07:45.662Z,5.60
2022-10-03T05:10:48.560Z,4.75
2022-10-03T05:13:34.078Z,6.05
2022-10-03T05:17:04.322Z,5.07
2022-10-03T05:20:22.797Z,4.82
2022-10-03T05:23:47.831Z,7.28
2022-10-03T05:27:00.406Z,6.10
2022-10-03T05:30:15.383Z,6.57
2022-10-03T05:33:39.641Z,5.40
2022-10-03T05:36:24.760Z,6.00
2022-10-03T05:40:02.666Z,6.38
2022-10-03T05:42:46.470Z,5.95
2022-10-03T05:45:26.208Z,5.80
2022-10-03T05:48:41.195Z,5.55
2022-10-03T05:51:54.041Z,5.88
2022-10-03T05:55:24.383Z,6.50
2022-10-03T05:58:37.753Z,6.43
2022-10-03T06:01:57.751Z,6.65
2022-10-03T06:05:12.403Z,5.00
2022-10-03T06:08:26.982Z,6.15
2022-10-03T06:12:02.285Z,6.25
2022-10-03T06:15:05.272Z,6.60
2022-10-03T06:17:56.593Z,6.00
2022-10-03T06:21:19.089Z,5.35
2022-10-03T06:24:32.696Z,4.68
2022-10-03T06:27:43.242Z,8.10
2022-10-03T06:30:58.182Z,5.28
2022-10-03T06:34:10.370Z,6.35
2022-10-03T06:36:49.047Z,5.63
2022-10-03T06:40:17.271Z,5.97
2022-10-03T06:43:26.605Z,4.88
2022-10-03T06:46:46.747Z,5.38
2022-10-03T06:49:49.581Z,5.68
2022-10-03T06:53:12.390Z,5.65
2022-10-03T06:56:31.950Z,4.70
2022-10-03T06:59:37.153Z,5.10
2022-10-03T07:05:41.238Z,5.20
2022-10-03T07:09:16.197Z,3.60
2022-10-03T07:12:38.204Z,4.90
2022-10-03T07:16:27.007Z,4.07
2022-10-03T07:30:53.370Z,3.75
2022-10-03T07:34:30.849Z,3.90
2022-10-03T07:51:42.431Z,4.57
2022-10-03T07:55:03.424Z,3.47
2022-10-03T08:18:55.085Z,3.90
2022-10-03T08:25:38.650Z,4.45
2022-10-03T08:29:07.363Z,3.72
2022-10-03T08:53:08.517Z,3.67
2022-10-03T08:56:09.213Z,5.45
2022-10-03T08:59:31.104Z,5.53
2022-10-03T09:14:04.726Z,3.10
2022-10-03T09:17:21.562Z,4.18
2022-10-03T09:20:57.687Z,4.15
2022-10-03T09:28:03.313Z,5.00
2022-10-03T09:42:06.183Z,4.70
2022-10-03T09:44:51.616Z,4.07
2022-10-03T09:47:37.680Z,3.97
2022-10-03T09:50:42.142Z,4.30
2022-10-03T10:03:53.646Z,3.95
2022-10-03T10:17:22.892Z,3.58
2022-10-03T10:23:34.008Z,5.10
2022-10-03T10:26:43.770Z,4.40
2022-10-03T10:29:39.504Z,3.55
2022-10-03T10:33:06.480Z,2.83
2022-10-03T10:40:14.780Z,4.00
2022-10-03T10:44:16.637Z,3.35
2022-10-03T10:51:45.899Z,2.80
2022-10-03T10:54:54.022Z,3.35
2022-10-03T10:58:57.926Z,2.83
2022-10-03T11:02:27.149Z,3.72
2022-10-03T11:05:37.034Z,3.85
2022-10-03T11:12:42.896Z,3.70
2022-10-03T11:16:06.238Z,3.10
2022-10-03T11:19:43.210Z,3.22
2022-10-03T11:22:52.511Z,3.50
2022-10-03T11:26:25.825Z,4.05
2022-10-03T11:33:11.337Z,3.20
2022-10-03T11:36:05.179Z,3.03
2022-10-03T11:38:51.534Z,3.30
2022-10-03T11:42:33.874Z,3.40
2022-10-03T11:55:16.717Z,2.90
2022-10-03T11:58:06.384Z,2.67
2022-10-03T12:00:41.307Z,3.58
2022-10-03T12:03:26.845Z,3.60
2022-10-03T12:06:34.177Z,2.97
2022-10-03T12:09:25.213Z,3.78
2022-10-03T12:12:31.757Z,2.65
2022-10-03T12:19:16.557Z,3.17
2022-10-03T12:38:00.969Z,3.10
2022-10-03T12:40:46.487Z,3.13
2022-10-03T12:44:10.590Z,3.30
2022-10-03T12:47:56.394Z,2.50
2022-10-03T12:54:12.809Z,2.72
2022-10-03T12:57:30.579Z,2.92
2022-10-03T13:00:10.211Z,3.90
2022-10-03T13:02:54.501Z,3.03
2022-10-03T13:09:46.743Z,2.38
2022-10-03T13:12:48.018Z,3.35
2022-10-03T13:16:03.229Z,2.72
2022-10-03T13:21:55.142Z,2.22
2022-10-03T13:24:56.190Z,2.60
2022-10-03T13:27:53.080Z,3.03
2022-10-03T13:30:39.297Z,2.83
2022-10-03T13:33:27.746Z,3.38
2022-10-03T13:36:14.864Z,2.92
2022-10-03T13:39:25.740Z,2.50
2022-10-03T13:42:33.647Z,2.60
2022-10-03T13:45:40.532Z,3.72
2022-10-03T13:48:20.530Z,3.00
2022-10-03T13:51:06.128Z,3.05
2022-10-03T13:57:10.054Z,3.75
2022-10-03T13:59:58.674Z,3.08
2022-10-03T14:28:36.189Z,2.90
2022-10-03T14:31:34.805Z,3.47
2022-10-03T14:40:38.762Z,3.22
2022-10-03T14:53:07.661Z,4.07
2022-10-03T14:55:48.621Z,3.33
2022-10-03T14:58:22.116Z,4.07
2022-10-03T15:01:23.492Z,3.05
2022-10-03T15:18:33.600Z,3.15
2022-10-03T15:37:50.126Z,3.40
2022-10-03T16:11:25.855Z,4.10
2022-10-03T16:14:26.496Z,4.03
2022-10-03T16:17:39.267Z,4.15
2022-10-03T16:20:42.526Z,4.78
2022-10-03T16:23:50.337Z,4.00
2022-10-03T16:27:17.084Z,4.25
2022-10-03T16:36:08.064Z,3.83
2022-10-03T16:38:43.295Z,3.92
2022-10-03T16:41:44.126Z,4.35
2022-10-03T17:04:49.200Z,4.93
2022-10-03T17:07:38.255Z,4.93
2022-10-03T17:13:24.425Z,4.85
2022-10-03T17:19:45.094Z,4.47
2022-10-03T17:22:23.653Z,4.10
2022-10-03T17:25:18.870Z,4.65
2022-10-03T17:37:36.431Z,4.88
2022-10-03T17:40:30.114Z,5.57
2022-10-03T18:23:50.079Z,5.03
2022-10-03T18:26:45.335Z,4.80
2022-10-03T18:49:35.423Z,5.13
2022-10-03T18:52:30.500Z,6.47
2022-10-03T18:55:18.079Z,5.43
2022-10-03T18:58:13.389Z,5.95
2022-10-03T19:01:17.819Z,6.25
2022-10-03T19:03:59.142Z,5.13
2022-10-03T19:18:59.454Z,6.93
2022-10-03T19:56:06.436Z,5.30
2022-10-03T20:01:16.472Z,6.13
2022-10-03T20:03:57.811Z,4.70
2022-10-03T20:12:20.649Z,4.82
2022-10-03T20:14:51.708Z,6.20
2022-10-03T20:32:23.383Z,5.53
2022-10-03T20:45:07.037Z,7.45
2022-10-03T20:48:03.954Z,7.03
2022-10-03T20:50:49.261Z,6.65
2022-10-03T20:53:22.987Z,7.00
2022-10-03T20:56:12.154Z,6.95
2022-10-03T20:58:55.658Z,5.30
2022-10-03T21:01:35.463Z,7.95
2022-10-03T21:04:25.702Z,6.38
2022-10-03T21:07:16.073Z,7.63
2022-10-03T21:10:00.803Z,6.00
2022-10-03T21:12:59.001Z,5.80
2022-10-03T21:25:08.834Z,5.75
2022-10-03T21:27:52.548Z,6.95
2022-10-03T21:44:05.623Z,6.45
2022-10-03T21:47:03.964Z,6.75
2022-10-03T21:49:47.743Z,7.18
2022-10-03T21:53:07.674Z,7.35
2022-10-03T21:56:25.748Z,7.45
2022-10-03T21:59:38.522Z,5.85
2022-10-03T22:03:16.323Z,7.38
2022-10-03T22:05:55.746Z,6.45
2022-10-03T22:08:33.170Z,6.68
2022-10-03T22:11:40.585Z,6.30
2022-10-03T22:14:41.394Z,6.45
2022-10-03T22:17:37.065Z,6.20
2022-10-03T22:20:21.867Z,6.18
2022-10-03T22:23:12.920Z,6.15
2022-10-03T22:26:05.510Z,6.35
2022-10-03T22:29:16.690Z,6.15
2022-10-03T22:32:20.792Z,6.22
2022-10-03T22:35:30.891Z,6.95
2022-10-03T22:37:58.209Z,5.88
2022-10-03T22:40:27.554Z,6.75
2022-10-03T22:42:58.557Z,6.53
2022-10-03T22:45:32.985Z,6.47
2022-10-03T22:48:12.393Z,6.88
2022-10-03T22:50:43.341Z,5.53
2022-10-03T22:53:21.220Z,7.00
2022-10-03T22:55:58.397Z,6.82
2022-10-03T22:58:30.557Z,7.53
2022-10-03T23:01:02.270Z,5.28
2022-10-03T23:03:36.140Z,6.72
2022-10-03T23:06:53.637Z,5.63
2022-10-03T23:09:36.514Z,6.70
2022-10-03T23:12:11.205Z,4.85
2022-10-03T23:14:48.147Z,5.35
2022-10-03T23:17:42.619Z,7.05
2022-10-03T23:20:59.223Z,6.72
2022-10-03T23:24:13.729Z,7.50
2022-10-03T23:27:26.921Z,7.85
2022-10-03T23:30:11.942Z,6.30
2022-10-03T23:32:47.687Z,6.18
2022-10-03T23:35:41.358Z,7.57
2022-10-03T23:38:33.273Z,6.05
2022-10-03T23:41:08.224Z,6.00
2022-10-03T23:43:58.249Z,6.50
2022-10-03T23:46:31.003Z,6.65
2022-10-03T23:49:02.067Z,5.65
2022-10-03T23:51:36.423Z,6.05
2022-10-03T23:54:11.867Z,6.30
2022-10-03T23:56:46.693Z,5.80
2022-10-03T23:59:16.237Z,6.47
